Time;durP1;ratioP1;P1;durP2;ratioP2;P2;SDS_P1;SDS_P2;PMS_P1;PMS_P2;Temp;Humidity;BMP_temperature;BMP_pressure;BME280_temperature;BME280_humidity;BME280_pressure;Samples;Min_cycle;Max_cycle;Signal;HPM_P1;HPM_P2
2021/12/31 00:00:42;;;;;;;9.95;9.15;;;;;;;6.19;70.45;95524.78;5056996;28;20221;-62
2021/12/31 00:03:09;;;;;;;9.25;8.55;;;;;;;6.21;70.31;95520.63;5056668;28;20190;-62
2021/12/31 00:05:37;;;;;;;9.25;8.45;;;;;;;6.21;70.02;95515.16;5038868;28;20636;-62
2021/12/31 00:08:04;;;;;;;9.45;8.65;;;;;;;6.18;69.96;95513.03;5039312;28;20193;-62
2021/12/31 00:10:31;;;;;;;9.75;8.95;;;;;;;6.19;70.38;95522.84;5056595;28;20186;-62
2021/12/31 00:12:58;;;;;;;9.00;8.20;;;;;;;6.25;69.96;95531.75;5039130;28;20208;-62
2021/12/31 00:15:25;;;;;;;9.70;8.90;;;;;;;6.25;69.74;95526.28;5056210;28;20240;-62
2021/12/31 00:17:52;;;;;;;9.75;8.95;;;;;;;6.24;69.61;95541.09;5039450;28;20198;-62
2021/12/31 00:20:23;;;;;;;9.88;9.07;;;;;;;6.23;69.96;95544.94;5056614;28;20196;-62
2021/12/31 00:23:06;;;;;;;10.80;9.90;;;;;;;6.23;70.10;95543.03;5056220;28;20602;-62
2021/12/31 00:25:34;;;;;;;10.57;9.68;;;;;;;6.25;70.14;95532.56;5038792;28;20545;-62
2021/12/31 00:28:01;;;;;;;10.52;9.63;;;;;;;6.26;69.81;95534.19;5056367;28;20190;-62
2021/12/31 00:30:28;;;;;;;10.93;9.93;;;;;;;6.26;69.55;95539.66;5038858;28;20198;-62
2021/12/31 00:32:56;;;;;;;11.05;10.15;;;;;;;6.26;69.57;95544.34;5056116;28;20205;-61
2021/12/31 00:35:23;;;;;;;11.75;10.73;;;;;;;6.24;69.65;95536.41;5054954;28;20200;-61
2021/12/31 00:37:51;;;;;;;12.07;11.07;;;;;;;6.22;69.57;95552.38;5056270;28;20205;-61
2021/12/31 00:40:19;;;;;;;11.30;10.30;;;;;;;6.19;69.49;95549.44;5056438;28;20205;-61
2021/12/31 00:42:46;;;;;;;11.23;10.32;;;;;;;6.18;69.32;95554.13;5038400;28;20209;-61
2021/12/31 00:45:14;;;;;;;11.40;10.48;;;;;;;6.18;69.27;95547.84;5055709;28;20182;-61
2021/12/31 00:47:41;;;;;;;11.18;10.27;;;;;;;6.15;69.12;95545.72;5038062;28;20205;-61
2021/12/31 00:50:09;;;;;;;11.27;10.38;;;;;;;6.12;69.43;95527.97;5038572;28;20202;-61
2021/12/31 00:52:36;;;;;;;10.40;9.57;;;;;;;6.13;69.45;95515.09;5055956;28;20198;-61
2021/12/31 00:55:05;;;;;;;11.13;10.23;;;;;;;6.12;69.58;95506.06;5038364;28;20204;-62
2021/12/31 00:57:32;;;;;;;9.95;9.15;;;;;;;6.15;69.53;95496.41;5055358;28;20601;-62
2021/12/31 00:59:59;;;;;;;10.38;9.57;;;;;;;6.16;69.34;95507.03;5055820;28;20213;-62
2021/12/31 01:02:28;;;;;;;10.32;9.43;;;;;;;6.15;69.84;95516.41;5038231;28;20209;-62
2021/12/31 01:04:55;;;;;;;10.38;9.48;;;;;;;6.16;69.77;95515.25;5037796;28;20190;-62
2021/12/31 01:07:22;;;;;;;10.57;9.68;;;;;;;6.17;69.31;95513.31;5055544;28;20193;-62
2021/12/31 01:09:49;;;;;;;10.30;9.40;;;;;;;6.15;69.55;95505.44;5038228;28;20202;-62
2021/12/31 01:12:17;;;;;;;9.43;8.63;;;;;;;6.17;69.56;95510.59;5037997;28;20197;-62
2021/12/31 01:14:54;;;;;;;9.82;9.00;;;;;;;6.16;69.67;95517.19;5038058;28;20201;-62
2021/12/31 01:17:35;;;;;;;8.75;8.10;;;;;;;6.15;69.74;95518.31;5055278;28;20284;-62
2021/12/31 01:20:02;;;;;;;8.05;7.35;;;;;;;6.14;69.62;95528.47;5055369;28;20273;-62
2021/12/31 01:22:31;;;;;;;7.80;7.20;;;;;;;6.16;69.60;95520.75;5055193;28;20232;-62
2021/12/31 01:24:58;;;;;;;7.18;6.60;;;;;;;6.10;69.39;95524.75;5055256;28;20199;-62
2021/12/31 01:27:27;;;;;;;6.82;6.32;;;;;;;6.11;69.24;95536.50;5055336;28;20201;-62
2021/12/31 01:29:53;;;;;;;7.60;7.00;;;;;;;6.12;69.00;95540.88;5055523;28;20182;-62
2021/12/31 01:32:20;;;;;;;6.82;6.22;;;;;;;6.10;69.56;95541.19;5038132;28;20190;-62
2021/12/31 01:34:47;;;;;;;6.88;6.38;;;;;;;6.09;68.95;95530.53;5038135;28;20196;-62
2021/12/31 01:37:14;;;;;;;7.13;6.53;;;;;;;5.98;69.25;95536.25;5054764;28;20587;-62
2021/12/31 01:39:42;;;;;;;6.38;5.88;;;;;;;6.02;69.28;95534.50;5055131;28;20215;-62
2021/12/31 01:42:12;;;;;;;6.53;6.03;;;;;;;6.02;69.35;95536.44;5055081;28;20239;-62
2021/12/31 01:44:43;;;;;;;6.72;6.18;;;;;;;6.04;69.36;95542.44;5037391;28;20211;-62
2021/12/31 01:47:14;;;;;;;6.65;6.15;;;;;;;6.06;69.37;95542.09;5037081;28;20606;-61
2021/12/31 01:49:54;;;;;;;6.55;6.03;;;;;;;6.02;69.60;95559.16;5055171;28;20209;-62
2021/12/31 01:52:21;;;;;;;6.68;6.18;;;;;;;6.06;68.95;95555.78;5055032;28;20178;-61
2021/12/31 01:54:48;;;;;;;7.22;6.63;;;;;;;6.05;69.05;95557.72;5055277;28;20196;-62
2021/12/31 01:57:15;;;;;;;7.43;6.82;;;;;;;6.06;69.29;95564.00;5037452;28;20204;-62
2021/12/31 01:59:43;;;;;;;7.72;7.13;;;;;;;6.07;68.81;95560.97;5055233;28;20517;-62
2021/12/31 02:02:11;;;;;;;7.13;6.57;;;;;;;6.09;68.85;95564.19;5037486;28;20224;-62
2021/12/31 02:04:39;;;;;;;8.02;7.32;;;;;;;6.09;68.70;95560.66;5037149;28;20209;-62
2021/12/31 02:07:06;;;;;;;7.30;6.70;;;;;;;6.10;69.00;95560.34;5054769;28;20201;-62
2021/12/31 02:09:37;;;;;;;8.00;7.32;;;;;;;6.07;68.89;95557.44;5037512;28;20190;-62
2021/12/31 02:12:04;;;;;;;8.00;7.30;;;;;;;6.02;68.79;95561.09;5037465;28;20194;-62
2021/12/31 02:14:31;;;;;;;7.78;7.07;;;;;;;6.01;68.91;95552.06;5054983;28;20189;-62
2021/12/31 02:16:59;;;;;;;7.70;7.10;;;;;;;6.05;68.65;95555.00;5036860;28;20232;-62
2021/12/31 02:19:28;;;;;;;8.20;7.50;;;;;;;6.06;68.67;95550.31;5054540;28;20598;-62
2021/12/31 02:21:57;;;;;;;7.57;6.97;;;;;;;6.06;68.76;95561.28;5054518;28;20224;-62
2021/12/31 02:24:24;;;;;;;7.80;7.13;;;;;;;6.01;68.64;95559.47;5054523;28;20197;-62
2021/12/31 02:26:51;;;;;;;7.45;6.78;;;;;;;6.00;68.58;95563.34;5037290;28;20202;-62
2021/12/31 02:29:18;;;;;;;6.85;6.25;;;;;;;5.98;68.70;95565.56;5054574;28;20196;-62
2021/12/31 02:31:45;;;;;;;6.93;6.32;;;;;;;5.95;68.45;95564.25;5037602;28;20190;-62
2021/12/31 02:34:12;;;;;;;6.40;5.90;;;;;;;6.00;68.17;95560.59;5054700;28;20190;-62
2021/12/31 02:36:39;;;;;;;6.57;6.07;;;;;;;5.96;68.12;95565.91;5054634;28;20180;-62
2021/12/31 02:39:08;;;;;;;7.10;6.50;;;;;;;5.97;67.95;95570.25;5054709;28;20188;-62
2021/12/31 02:41:35;;;;;;;7.22;6.70;;;;;;;5.92;68.36;95573.13;5037014;28;20283;-62
2021/12/31 02:44:02;;;;;;;7.20;6.63;;;;;;;5.89;67.80;95576.44;5037251;28;20568;-62
2021/12/31 02:46:28;;;;;;;7.07;6.47;;;;;;;5.86;68.15;95576.25;5054307;28;20190;-62
2021/12/31 02:48:57;;;;;;;7.50;6.82;;;;;;;5.91;68.09;95585.13;5054582;28;20182;-62
2021/12/31 02:51:24;;;;;;;7.65;7.00;;;;;;;5.95;67.69;95582.63;5054082;28;20891;-62
2021/12/31 02:53:53;;;;;;;7.95;7.25;;;;;;;5.93;67.95;95593.91;5054459;28;20186;-62
2021/12/31 02:56:24;;;;;;;6.88;6.38;;;;;;;5.93;67.81;95587.63;5054482;28;20205;-62
2021/12/31 02:58:52;;;;;;;7.40;6.78;;;;;;;5.92;67.85;95588.69;5038882;28;20597;-62
2021/12/31 03:01:19;;;;;;;7.55;6.95;;;;;;;5.94;67.86;95586.47;5057808;28;20277;-62
2021/12/31 03:03:46;;;;;;;7.65;7.05;;;;;;;5.97;67.59;95594.88;5040863;28;20194;-62
2021/12/31 03:06:14;;;;;;;7.35;6.75;;;;;;;5.99;67.58;95597.31;5040492;28;20198;-62
2021/12/31 03:08:45;;;;;;;8.07;7.38;;;;;;;5.98;67.51;95585.53;5057461;28;20194;-62
2021/12/31 03:11:14;;;;;;;7.63;7.03;;;;;;;6.00;67.50;95588.00;5057421;28;20242;-62
2021/12/31 03:13:44;;;;;;;7.53;6.93;;;;;;;6.00;67.45;95590.72;5040280;28;20605;-62
2021/12/31 03:16:11;;;;;;;8.30;7.60;;;;;;;6.00;67.82;95602.47;5057376;28;20233;-62
2021/12/31 03:18:38;;;;;;;7.82;7.18;;;;;;;5.97;67.93;95599.56;5058174;28;20572;-62
2021/12/31 03:21:09;;;;;;;7.65;7.05;;;;;;;5.92;67.56;95595.03;5040277;28;20202;-62
2021/12/31 03:23:36;;;;;;;7.65;6.95;;;;;;;5.90;67.51;95601.88;5039985;28;20264;-62
2021/12/31 03:26:03;;;;;;;7.65;7.05;;;;;;;5.90;67.95;95601.88;5057447;28;20185;-64
2021/12/31 03:28:30;;;;;;;8.48;7.78;;;;;;;5.89;67.84;95614.78;5057829;28;20193;-63
2021/12/31 03:30:58;;;;;;;7.53;6.93;;;;;;;5.81;67.67;95615.50;5040018;28;20204;-63
2021/12/31 03:33:25;;;;;;;7.65;7.05;;;;;;;5.76;68.24;95621.91;5057202;28;20189;-63
2021/12/31 03:35:51;;;;;;;7.00;6.50;;;;;;;5.74;67.70;95613.19;5056930;28;20213;-63
2021/12/31 03:38:18;;;;;;;6.93;6.40;;;;;;;5.75;67.76;95603.06;5039722;28;20197;-63
2021/12/31 03:40:46;;;;;;;6.85;6.30;;;;;;;5.70;67.47;95604.00;5057265;28;20196;-63
2021/12/31 03:43:13;;;;;;;7.47;6.88;;;;;;;5.71;68.06;95613.00;5056755;28;20340;-63
2021/12/31 03:45:41;;;;;;;7.50;6.90;;;;;;;5.71;67.78;95621.22;5039774;28;20201;-63
2021/12/31 03:48:09;;;;;;;6.68;6.07;;;;;;;5.67;67.95;95628.44;5039973;28;20260;-63
2021/12/31 03:50:36;;;;;;;7.40;6.80;;;;;;;5.63;68.02;95630.13;5039851;28;20197;-63
2021/12/31 03:53:03;;;;;;;7.47;6.88;;;;;;;5.65;68.35;95636.13;5057057;28;20190;-63
2021/12/31 03:55:30;;;;;;;6.97;6.47;;;;;;;5.65;67.30;95634.19;5056953;28;20190;-63
2021/12/31 03:57:57;;;;;;;6.53;6.03;;;;;;;5.62;67.03;95639.47;5057055;28;20200;-63
2021/12/31 04:00:28;;;;;;;6.65;6.10;;;;;;;5.64;67.10;95634.50;5056626;28;20190;-62
2021/12/31 04:02:55;;;;;;;7.10;6.50;;;;;;;5.67;66.82;95639.38;5039025;28;20209;-63
2021/12/31 04:05:23;;;;;;;7.13;6.57;;;;;;;5.67;66.78;95640.19;5039145;28;20201;-63
2021/12/31 04:07:50;;;;;;;6.65;6.15;;;;;;;5.62;66.92;95634.00;5056849;28;20640;-63
2021/12/31 04:10:17;;;;;;;6.45;5.90;;;;;;;5.59;66.48;95623.66;5038579;28;20202;-62
2021/12/31 04:12:44;;;;;;;6.10;5.70;;;;;;;5.54;66.18;95628.13;5057092;28;20499;-62
2021/12/31 04:15:11;;;;;;;6.80;6.20;;;;;;;5.53;66.45;95620.25;5056225;28;20511;-63
2021/12/31 04:17:40;;;;;;;7.32;6.65;;;;;;;5.57;66.93;95631.38;5056555;28;20197;-63
2021/12/31 04:20:14;;;;;;;7.15;6.63;;;;;;;5.53;67.01;95620.25;5039057;28;20205;-63
2021/12/31 04:22:52;;;;;;;7.43;6.82;;;;;;;5.44;67.20;95620.13;5038784;28;20218;-63
2021/12/31 04:25:19;;;;;;;8.85;8.05;;;;;;;5.44;66.99;95616.59;5038854;28;20258;-63
2021/12/31 04:27:46;;;;;;;8.00;7.30;;;;;;;5.46;66.80;95620.66;5056040;28;20192;-63
2021/12/31 04:30:13;;;;;;;7.32;6.68;;;;;;;5.46;66.20;95609.72;5039127;28;20206;-63
2021/12/31 04:32:40;;;;;;;5.57;5.18;;;;;;;5.35;66.18;95619.25;5038946;28;20598;-63
2021/12/31 04:35:08;;;;;;;5.72;5.32;;;;;;;5.35;66.42;95621.19;5056116;28;20200;-63
2021/12/31 04:37:35;;;;;;;6.00;5.50;;;;;;;5.37;66.34;95624.41;5038551;28;20197;-63
2021/12/31 04:40:03;;;;;;;5.43;4.93;;;;;;;5.39;65.69;95631.19;5056183;28;20304;-63
2021/12/31 04:42:30;;;;;;;5.95;5.45;;;;;;;5.35;65.98;95643.88;5056142;28;20206;-63
2021/12/31 04:44:57;;;;;;;5.90;5.40;;;;;;;5.35;65.68;95634.88;5055951;28;20201;-62
2021/12/31 04:47:24;;;;;;;6.15;5.63;;;;;;;5.34;66.00;95627.75;5056581;28;20205;-62
2021/12/31 04:49:51;;;;;;;5.32;4.93;;;;;;;5.31;65.90;95629.19;5039362;28;20198;-62
2021/12/31 04:52:17;;;;;;;5.38;4.97;;;;;;;5.32;65.70;95647.22;5055825;28;20178;-62
2021/12/31 04:54:44;;;;;;;6.10;5.60;;;;;;;5.31;65.94;95643.69;5038120;28;20216;-62
2021/12/31 04:57:12;;;;;;;5.78;5.38;;;;;;;5.33;65.88;95640.63;5055948;28;20190;-62
2021/12/31 04:59:39;;;;;;;5.70;5.30;;;;;;;5.31;66.15;95634.66;5055683;28;20200;-62
2021/12/31 05:02:06;;;;;;;6.25;5.85;;;;;;;5.30;65.55;95627.56;5038162;28;20197;-63
2021/12/31 05:04:33;;;;;;;6.75;6.25;;;;;;;5.30;65.73;95627.56;5038391;28;20198;-63
2021/12/31 05:06:59;;;;;;;6.30;5.80;;;;;;;5.28;66.08;95629.81;5055707;28;20192;-64
2021/12/31 05:09:26;;;;;;;6.18;5.70;;;;;;;5.28;66.16;95633.34;5038041;28;20201;-63
2021/12/31 05:11:53;;;;;;;5.70;5.30;;;;;;;5.27;65.84;95634.47;5055658;28;20217;-63
2021/12/31 05:14:22;;;;;;;5.60;5.20;;;;;;;5.28;66.17;95643.47;5038081;28;20198;-63
2021/12/31 05:16:49;;;;;;;5.90;5.40;;;;;;;5.24;66.00;95640.53;5037601;28;20233;-64
2021/12/31 05:19:16;;;;;;;5.30;4.85;;;;;;;5.26;65.70;95645.69;5055419;28;20193;-65
2021/12/31 05:21:43;;;;;;;4.47;4.18;;;;;;;5.27;65.53;95645.41;5054651;28;20205;-63
2021/12/31 05:24:09;;;;;;;4.88;4.47;;;;;;;5.30;65.68;95641.22;5055441;28;20213;-63
2021/12/31 05:26:36;;;;;;;4.70;4.30;;;;;;;5.32;65.48;95631.63;5055473;28;20212;-63
2021/12/31 05:29:03;;;;;;;5.07;4.68;;;;;;;5.32;65.08;95634.34;5037891;28;20201;-63
2021/12/31 05:31:31;;;;;;;5.05;4.60;;;;;;;5.33;65.34;95637.88;5037695;28;20194;-63
2021/12/31 05:33:58;;;;;;;4.43;4.05;;;;;;;5.24;65.16;95650.69;5054938;28;20189;-63
2021/12/31 05:36:26;;;;;;;5.55;4.63;;;;;;;5.22;65.79;95647.41;5037770;28;20200;-63
2021/12/31 05:38:52;;;;;;;5.50;5.00;;;;;;;5.20;66.24;95644.19;5054888;28;20543;-62
2021/12/31 05:41:19;;;;;;;5.90;5.30;;;;;;;5.16;66.15;95645.94;5054783;28;20185;-63
2021/12/31 05:43:46;;;;;;;5.30;4.90;;;;;;;5.14;66.00;95650.88;5038101;28;20260;-63
2021/12/31 05:46:13;;;;;;;6.13;5.63;;;;;;;5.15;66.48;95650.56;5037529;28;20205;-63
2021/12/31 05:48:41;;;;;;;7.95;7.30;;;;;;;5.15;66.67;95647.81;5054978;28;20189;-63
2021/12/31 05:51:08;;;;;;;7.30;6.70;;;;;;;5.12;66.55;95651.19;5054887;28;20192;-62
2021/12/31 05:53:35;;;;;;;8.35;7.55;;;;;;;5.16;66.50;95657.66;5054919;28;20193;-63
2021/12/31 05:56:01;;;;;;;8.57;7.88;;;;;;;5.17;66.42;95656.53;5037174;28;20194;-63
2021/12/31 05:58:28;;;;;;;9.05;8.25;;;;;;;5.21;66.66;95663.03;5054956;28;20190;-63
2021/12/31 06:00:55;;;;;;;8.63;7.93;;;;;;;5.22;66.04;95663.84;5054907;28;20190;-63
2021/12/31 06:03:22;;;;;;;7.78;7.18;;;;;;;5.21;66.13;95668.50;5037326;28;20220;-63
2021/12/31 06:05:50;;;;;;;7.43;6.82;;;;;;;5.24;66.11;95676.09;5037261;28;20606;-63
2021/12/31 06:08:17;;;;;;;7.47;6.88;;;;;;;5.25;66.48;95666.78;5037216;28;20201;-63
2021/12/31 06:10:44;;;;;;;8.20;7.50;;;;;;;5.26;66.63;95670.31;5055168;28;20225;-64
2021/12/31 06:13:12;;;;;;;8.43;7.72;;;;;;;5.22;66.33;95667.38;5037612;28;20204;-68
2021/12/31 06:15:41;;;;;;;8.15;7.55;;;;;;;5.16;66.23;95668.59;5036835;28;20241;-63
2021/12/31 06:18:08;;;;;;;9.07;8.13;;;;;;;5.17;66.39;95663.94;5054530;28;20620;-64
2021/12/31 06:20:35;;;;;;;9.27;8.48;;;;;;;5.19;66.76;95669.91;5037367;28;20218;-65
2021/12/31 06:23:04;;;;;;;8.70;8.00;;;;;;;5.21;66.28;95668.50;5036868;28;20224;-63
2021/12/31 06:25:31;;;;;;;8.77;7.97;;;;;;;5.23;66.70;95666.28;5037269;28;20205;-63
2021/12/31 06:27:57;;;;;;;8.70;7.90;;;;;;;5.28;66.15;95676.28;5037716;28;20212;-66
2021/12/31 06:30:24;;;;;;;8.20;7.50;;;;;;;5.30;66.11;95677.63;5054765;28;20204;-62
2021/12/31 06:32:51;;;;;;;6.70;6.20;;;;;;;5.34;65.91;95686.03;5056238;28;20182;-63
2021/12/31 06:35:18;;;;;;;7.35;6.75;;;;;;;5.37;65.75;95684.59;5040815;28;20598;-63
2021/12/31 06:37:44;;;;;;;7.50;6.85;;;;;;;5.38;65.62;95692.50;5041073;28;20208;-65
2021/12/31 06:40:14;;;;;;;7.05;6.45;;;;;;;5.41;66.54;95693.81;5059099;28;20197;-65
2021/12/31 06:42:41;;;;;;;8.25;7.55;;;;;;;5.44;65.99;95691.28;5041144;28;20209;-62
2021/12/31 06:45:09;;;;;;;7.68;7.07;;;;;;;5.44;65.58;95690.47;5040647;28;20189;-62
2021/12/31 06:47:36;;;;;;;7.35;6.70;;;;;;;5.50;66.07;95690.06;5040660;28;20193;-62
2021/12/31 06:50:04;;;;;;;6.45;5.95;;;;;;;5.55;65.43;95689.97;5058188;28;20192;-63
2021/12/31 06:52:30;;;;;;;6.30;5.80;;;;;;;5.60;65.66;95694.53;5059430;28;20186;-62
2021/12/31 06:54:57;;;;;;;6.80;6.30;;;;;;;5.66;65.96;95692.47;5058041;28;20182;-62
2021/12/31 06:57:25;;;;;;;7.72;7.13;;;;;;;5.70;66.17;95690.72;5057992;28;20205;-62
2021/12/31 06:59:52;;;;;;;9.35;8.55;;;;;;;5.71;65.84;95684.97;5057984;28;20186;-61
2021/12/31 07:02:19;;;;;;;6.47;5.82;;;;;;;5.69;66.29;95691.84;5058001;28;20194;-63
2021/12/31 07:04:46;;;;;;;3.97;3.70;;;;;;;5.78;65.88;95682.63;5057827;28;20214;-62
2021/12/31 07:07:13;;;;;;;4.60;4.20;;;;;;;5.94;65.65;95690.53;5057554;28;20194;-63
2021/12/31 07:09:40;;;;;;;3.05;2.85;;;;;;;6.07;65.43;95692.44;5040905;28;20193;-64
2021/12/31 07:12:08;;;;;;;3.20;2.97;;;;;;;6.19;65.01;95695.41;5040518;28;20200;-63
2021/12/31 07:14:36;;;;;;;2.83;2.63;;;;;;;6.27;64.55;95693.88;5040665;28;20197;-62
2021/12/31 07:17:03;;;;;;;2.80;2.60;;;;;;;6.34;64.38;95694.25;5039984;28;20572;-62
2021/12/31 07:19:30;;;;;;;3.10;2.90;;;;;;;6.41;64.34;95688.34;5040018;28;20230;-62
2021/12/31 07:21:57;;;;;;;3.08;2.88;;;;;;;6.42;64.36;95687.22;5040012;28;20205;-63
2021/12/31 07:24:24;;;;;;;2.67;2.47;;;;;;;6.45;64.41;95681.13;5040038;28;20218;-63
2021/12/31 07:26:51;;;;;;;2.63;2.42;;;;;;;6.49;64.28;95682.09;5057113;28;20192;-63
2021/12/31 07:29:17;;;;;;;3.00;2.80;;;;;;;6.54;64.31;95690.22;5057246;28;20197;-67
2021/12/31 07:31:46;;;;;;;2.42;2.33;;;;;;;6.58;64.52;95687.66;5057110;28;20186;-62
2021/12/31 07:34:12;;;;;;;3.08;2.88;;;;;;;6.58;64.13;95683.00;5039414;28;20636;-61
2021/12/31 07:36:39;;;;;;;3.13;2.92;;;;;;;6.63;64.44;95684.78;5056793;28;20536;-63
2021/12/31 07:39:08;;;;;;;3.00;2.80;;;;;;;6.64;64.08;95675.44;5039692;28;20191;-63
2021/12/31 07:41:35;;;;;;;2.78;2.58;;;;;;;6.68;64.29;95684.63;5056924;28;20240;-63
2021/12/31 07:44:02;;;;;;;3.10;2.85;;;;;;;6.67;63.92;95689.31;5056447;28;20206;-67
2021/12/31 07:46:29;;;;;;;3.10;2.90;;;;;;;6.70;64.45;95688.69;5039540;28;20202;-63
2021/12/31 07:48:57;;;;;;;3.08;2.88;;;;;;;6.75;64.38;95694.06;5056823;28;20268;-65
2021/12/31 07:51:24;;;;;;;3.38;3.08;;;;;;;6.78;64.17;95686.31;5056884;28;20190;-62
2021/12/31 07:53:51;;;;;;;2.88;2.67;;;;;;;6.86;63.80;95693.78;5039768;28;20200;-65
2021/12/31 07:56:19;;;;;;;2.78;2.58;;;;;;;6.89;63.47;95691.22;5057061;28;20190;-63
2021/12/31 07:58:46;;;;;;;2.92;2.72;;;;;;;6.95;63.50;95694.66;5039588;28;20199;-66
2021/12/31 08:01:14;;;;;;;3.60;3.30;;;;;;;6.91;63.71;95693.66;5039200;28;20269;-69
2021/12/31 08:03:40;;;;;;;3.45;3.25;;;;;;;6.95;63.95;95702.88;5056335;28;20225;-66
2021/12/31 08:06:09;;;;;;;5.68;4.13;;;;;;;7.00;63.52;95706.28;5040517;28;20186;-64
2021/12/31 08:08:36;;;;;;;4.65;4.25;;;;;;;7.02;63.87;95697.75;5057282;28;20652;-74
2021/12/31 08:11:03;;;;;;;5.20;4.80;;;;;;;7.02;63.90;95697.75;5056582;28;20197;-64
2021/12/31 08:13:30;;;;;;;5.75;5.25;;;;;;;7.04;64.18;95700.97;5056759;28;20185;-62
2021/12/31 08:15:56;;;;;;;6.60;6.00;;;;;;;7.08;64.65;95707.47;5039510;28;20237;-64
2021/12/31 08:18:23;;;;;;;6.47;5.97;;;;;;;7.07;64.03;95705.84;5038961;28;20205;-63
2021/12/31 08:20:50;;;;;;;6.57;5.97;;;;;;;7.06;64.46;95698.75;5056566;28;20200;-63
2021/12/31 08:23:18;;;;;;;6.18;5.68;;;;;;;7.07;64.00;95702.28;5039357;28;20594;-64
2021/12/31 08:25:45;;;;;;;6.80;6.20;;;;;;;7.09;64.31;95708.28;5038667;28;20194;-64
2021/12/31 08:28:12;;;;;;;5.85;5.38;;;;;;;7.11;63.99;95704.09;5055943;28;20200;-64
2021/12/31 08:30:39;;;;;;;5.90;5.40;;;;;;;7.16;63.60;95706.72;5056508;28;20182;-64
2021/12/31 08:33:06;;;;;;;6.18;5.60;;;;;;;7.27;64.27;95695.47;5038517;28;20598;-64
2021/12/31 08:35:33;;;;;;;6.57;6.07;;;;;;;7.40;63.52;95700.00;5055832;28;20602;-64
2021/12/31 08:38:00;;;;;;;6.47;5.93;;;;;;;7.49;62.76;95698.13;5039639;28;20193;-64
2021/12/31 08:40:28;;;;;;;6.53;6.03;;;;;;;7.64;63.28;95691.38;5056778;28;20211;-64
2021/12/31 08:42:55;;;;;;;6.40;5.90;;;;;;;7.77;62.95;95693.19;5039195;28;20202;-64
2021/12/31 08:45:24;;;;;;;6.93;6.40;;;;;;;7.91;62.59;95677.38;5038179;28;20515;-64
2021/12/31 08:47:51;;;;;;;6.95;6.43;;;;;;;8.05;61.98;95677.22;5055298;28;20644;-64
2021/12/31 08:50:18;;;;;;;6.95;6.35;;;;;;;8.19;62.77;95677.88;5038609;28;20201;-64
2021/12/31 08:52:45;;;;;;;7.05;6.35;;;;;;;8.27;60.89;95678.22;5055934;28;20200;-64
2021/12/31 08:55:12;;;;;;;7.38;6.68;;;;;;;8.41;61.26;95671.44;5055286;28;20178;-64
2021/12/31 08:57:40;;;;;;;7.80;7.00;;;;;;;8.52;60.56;95669.19;5055526;28;20197;-64
2021/12/31 09:00:08;;;;;;;6.95;6.35;;;;;;;8.56;59.85;95675.63;5038219;28;20207;-64
2021/12/31 09:02:38;;;;;;;6.93;6.32;;;;;;;8.64;61.32;95668.50;5055710;28;20190;-64
2021/12/31 09:05:06;;;;;;;6.93;6.43;;;;;;;8.74;60.66;95667.38;5055882;28;20221;-64
2021/12/31 09:07:32;;;;;;;6.95;6.25;;;;;;;8.86;60.94;95667.50;5038808;28;20204;-64
2021/12/31 09:09:59;;;;;;;7.07;6.38;;;;;;;9.02;59.75;95663.09;5038697;28;20494;-64
2021/12/31 09:12:26;;;;;;;6.03;5.57;;;;;;;9.18;59.67;95657.03;5038468;28;20228;-64
2021/12/31 09:14:54;;;;;;;6.82;6.18;;;;;;;9.25;58.60;95654.59;5037875;28;20553;-64
2021/12/31 09:17:22;;;;;;;6.35;5.80;;;;;;;9.27;59.72;95649.59;5037965;28;20198;-64
2021/12/31 09:19:49;;;;;;;6.50;5.97;;;;;;;9.46;59.08;95652.72;5055159;28;20229;-64
2021/12/31 09:22:16;;;;;;;7.70;7.00;;;;;;;9.56;58.33;95652.34;5037904;28;20220;-64
2021/12/31 09:24:43;;;;;;;8.05;7.25;;;;;;;9.76;58.75;95647.22;5055348;28;20228;-64
2021/12/31 09:27:10;;;;;;;8.25;7.55;;;;;;;9.98;58.45;95644.13;5037763;28;20201;-64
2021/12/31 09:29:37;;;;;;;8.02;7.28;;;;;;;10.25;58.24;95644.75;5037941;28;20199;-64
2021/12/31 09:32:06;;;;;;;8.15;7.45;;;;;;;10.45;56.73;95651.44;5055254;28;20192;-64
2021/12/31 09:34:33;;;;;;;7.88;7.28;;;;;;;10.57;56.34;95651.50;5037680;28;20205;-64
2021/12/31 09:37:00;;;;;;;8.07;7.38;;;;;;;10.72;56.41;95639.81;5055153;28;20208;-64
2021/12/31 09:39:27;;;;;;;7.35;6.63;;;;;;;10.85;55.16;95644.22;5037518;28;20201;-64
2021/12/31 09:41:53;;;;;;;7.55;6.75;;;;;;;10.84;55.67;95642.59;5037483;28;20197;-64
2021/12/31 09:44:21;;;;;;;7.10;6.40;;;;;;;10.74;55.37;95643.03;5037481;28;20575;-64
2021/12/31 09:46:48;;;;;;;7.43;6.82;;;;;;;10.85;55.57;95635.13;5054720;28;20182;-64
2021/12/31 09:49:16;;;;;;;7.43;6.80;;;;;;;10.96;55.27;95641.84;5037564;28;20212;-64
2021/12/31 09:51:43;;;;;;;8.68;7.88;;;;;;;11.00;54.79;95628.16;5037160;28;20204;-64
2021/12/31 09:54:11;;;;;;;9.43;8.50;;;;;;;11.07;55.17;95629.22;5037161;28;20639;-64
2021/12/31 09:56:40;;;;;;;8.20;7.53;;;;;;;11.39;55.09;95631.44;5055077;28;20517;-64
2021/12/31 09:59:07;;;;;;;8.23;7.45;;;;;;;11.67;53.41;95624.06;5054976;28;20221;-64
2021/12/31 10:01:34;;;;;;;8.60;7.80;;;;;;;11.87;52.83;95616.00;5037400;28;20193;-64
2021/12/31 10:04:01;;;;;;;8.73;6.82;;;;;;;11.97;52.19;95610.00;5037367;28;20220;-64
2021/12/31 10:06:29;;;;;;;7.72;6.95;;;;;;;12.03;52.76;95609.44;5037061;28;20205;-64
2021/12/31 10:09:03;;;;;;;6.65;6.05;;;;;;;11.92;52.93;95605.53;5041263;28;20280;-64
2021/12/31 10:11:30;;;;;;;6.68;5.85;;;;;;;11.84;52.22;95611.19;5058843;28;20192;-64
2021/12/31 10:13:58;;;;;;;5.68;5.28;;;;;;;11.72;52.71;95603.69;5041550;28;20207;-64
2021/12/31 10:16:26;;;;;;;6.13;5.63;;;;;;;11.44;52.87;95596.13;5040903;28;20259;-64
2021/12/31 10:19:07;;;;;;;6.32;5.72;;;;;;;11.32;54.42;95602.44;5041467;28;20212;-64
2021/12/31 10:21:41;;;;;;;6.10;5.60;;;;;;;11.19;54.50;95592.53;5041174;28;20197;-64
2021/12/31 10:24:35;;;;;;;6.78;6.18;;;;;;;10.98;55.03;95592.63;5058607;28;20201;-64
2021/12/31 10:27:04;;;;;;;6.72;6.13;;;;;;;10.88;55.17;95595.03;5012212;28;20217;-64
2021/12/31 10:29:31;;;;;;;6.35;5.75;;;;;;;10.58;55.53;95586.91;5058620;28;20186;-64
2021/12/31 10:31:59;;;;;;;6.93;6.03;;;;;;;10.48;56.53;95585.38;5058549;28;20190;-64
2021/12/31 10:34:27;;;;;;;5.85;5.35;;;;;;;10.55;56.20;95584.81;5058505;28;20193;-64
2021/12/31 10:36:57;;;;;;;5.93;5.40;;;;;;;10.53;56.22;95581.59;5058528;28;20201;-64
2021/12/31 10:39:26;;;;;;;5.85;5.32;;;;;;;10.53;56.63;95574.16;5041346;28;20214;-64
2021/12/31 10:42:03;;;;;;;5.75;5.25;;;;;;;10.58;57.03;95565.63;5040814;28;20197;-64
2021/12/31 10:44:47;;;;;;;7.15;6.38;;;;;;;10.66;56.70;95563.13;5058206;28;20537;-64
2021/12/31 10:47:15;;;;;;;7.10;6.40;;;;;;;10.69;56.52;95563.25;5040667;28;20196;-64
2021/12/31 10:50:07;;;;;;;6.10;5.50;;;;;;;10.57;56.35;95558.53;5040699;28;20644;-64
2021/12/31 10:52:39;;;;;;;6.50;5.75;;;;;;;10.58;57.19;95562.88;5058214;28;20198;-64
2021/12/31 10:55:16;;;;;;;7.13;6.35;;;;;;;10.59;56.63;95560.91;5040318;28;20202;-64
2021/12/31 10:57:44;;;;;;;6.65;6.05;;;;;;;10.58;57.15;95562.88;5057516;28;20594;-64
2021/12/31 11:00:12;;;;;;;6.18;5.57;;;;;;;10.52;57.44;95564.22;5057229;28;20182;-64
2021/12/31 11:02:40;;;;;;;6.80;6.20;;;;;;;10.52;57.66;95571.72;5040321;28;20190;-64
2021/12/31 11:05:09;;;;;;;6.15;5.55;;;;;;;10.51;57.07;95559.88;5057598;28;20222;-64
2021/12/31 11:07:38;;;;;;;5.38;4.88;;;;;;;10.53;57.47;95565.03;5057946;28;20189;-64
2021/12/31 11:10:06;;;;;;;6.75;5.15;;;;;;;10.55;57.93;95558.03;5057629;28;20189;-64
2021/12/31 11:12:35;;;;;;;6.45;5.82;;;;;;;10.51;57.59;95570.09;5040456;28;20208;-64
2021/12/31 11:15:03;;;;;;;7.55;6.63;;;;;;;10.45;58.38;95565.94;5039955;28;20214;-64
2021/12/31 11:17:30;;;;;;;7.45;5.97;;;;;;;10.43;58.09;95577.31;5057379;28;20276;-64
2021/12/31 11:19:57;;;;;;;5.90;5.40;;;;;;;10.37;58.08;95570.41;5039063;28;20201;-64
2021/12/31 11:22:26;;;;;;;6.50;5.90;;;;;;;10.41;57.98;95570.53;5040167;28;20194;-64
2021/12/31 11:24:54;;;;;;;5.75;5.18;;;;;;;10.45;57.83;95563.97;5057064;28;20507;-66
2021/12/31 11:27:31;;;;;;;5.78;5.18;;;;;;;10.47;57.75;95569.97;5039748;28;20201;-66
2021/12/31 11:29:59;;;;;;;5.10;4.60;;;;;;;10.45;57.84;95561.22;5039815;28;20189;-67
2021/12/31 11:32:54;;;;;;;4.25;3.85;;;;;;;10.49;57.37;95564.09;5056896;28;20539;-65
2021/12/31 11:35:29;;;;;;;4.38;4.03;;;;;;;10.49;57.31;95567.66;5057089;28;20198;-65
2021/12/31 11:37:56;;;;;;;4.55;4.15;;;;;;;10.46;57.75;95573.88;5056937;28;20227;-66
2021/12/31 11:40:36;;;;;;;4.05;3.65;;;;;;;10.41;57.57;95567.78;5039740;28;20197;-65
2021/12/31 11:43:20;;;;;;;4.10;3.70;;;;;;;10.39;57.83;95567.31;5057134;28;20516;-65